createdAt,value
2023-02-05T00:02:07.394Z,6.64
2023-02-05T00:04:56.591Z,6.63
2023-02-05T00:07:45.808Z,6.57
2023-02-05T00:10:35.383Z,6.49
2023-02-05T00:13:26.011Z,6.48
2023-02-05T00:16:18.383Z,6.38
2023-02-05T00:19:07.697Z,6.41
2023-02-05T00:21:56.874Z,6.40
2023-02-05T00:24:46.119Z,6.34
2023-02-05T00:27:35.365Z,6.34
2023-02-05T00:30:25.990Z,6.29
2023-02-05T00:33:15.467Z,6.28
2023-02-05T00:36:06.086Z,6.30
2023-02-05T00:38:55.472Z,6.29
2023-02-05T00:41:44.774Z,6.26
2023-02-05T00:44:34.002Z,6.23
2023-02-05T00:47:24.644Z,6.23
2023-02-05T00:50:13.837Z,6.19
2023-02-05T00:53:03.648Z,6.13
2023-02-05T00:55:53.783Z,5.82
2023-02-05T00:58:47.544Z,6.15
2023-02-05T01:01:36.937Z,6.10
2023-02-05T01:04:27.743Z,6.10
2023-02-05T01:07:16.950Z,6.00
2023-02-05T01:10:07.728Z,5.94
2023-02-05T01:12:56.997Z,5.92
2023-02-05T01:15:47.457Z,5.90
2023-02-05T01:18:36.673Z,5.94
2023-02-05T01:21:27.295Z,5.88
2023-02-05T01:24:16.551Z,5.87
2023-02-05T01:27:06.183Z,5.83
2023-02-05T01:29:55.399Z,5.81
2023-02-05T01:32:44.621Z,5.83
2023-02-05T01:35:34.371Z,5.78
2023-02-05T01:38:26.178Z,5.75
2023-02-05T01:41:15.496Z,5.76
2023-02-05T01:44:11.437Z,5.70
2023-02-05T01:47:00.779Z,5.72
2023-02-05T01:49:50.423Z,5.66
2023-02-05T01:52:39.792Z,5.70
2023-02-05T01:55:32.303Z,5.63
2023-02-05T01:58:22.125Z,5.61
2023-02-05T02:01:11.366Z,5.56
2023-02-05T02:04:05.122Z,5.54
2023-02-05T02:06:55.030Z,5.48
2023-02-05T02:09:46.997Z,5.44
2023-02-05T02:12:42.293Z,5.48
2023-02-05T02:15:31.962Z,5.40
2023-02-05T02:18:27.919Z,5.41
2023-02-05T02:21:56.881Z,5.41
2023-02-05T02:25:44.233Z,5.42
2023-02-05T02:28:40.293Z,5.29
2023-02-05T02:31:33.677Z,5.26
2023-02-05T02:34:32.706Z,5.25
2023-02-05T02:37:30.778Z,5.29
2023-02-05T02:40:26.282Z,5.24
2023-02-05T02:43:24.878Z,5.20
2023-02-05T02:46:22.411Z,5.14
2023-02-05T02:49:16.656Z,5.01
2023-02-05T02:52:10.241Z,4.97
2023-02-05T02:55:05.545Z,5.00
2023-02-05T02:57:57.494Z,5.01
2023-02-05T03:00:49.370Z,5.01
2023-02-05T03:03:46.815Z,4.98
2023-02-05T03:06:37.565Z,4.99
2023-02-05T03:09:33.918Z,5.00
2023-02-05T03:12:24.159Z,4.90
2023-02-05T03:15:14.191Z,4.87
2023-02-05T03:18:03.603Z,4.83
2023-02-05T03:20:59.428Z,4.79
2023-02-05T03:23:51.086Z,4.80
2023-02-05T03:26:40.838Z,4.72
2023-02-05T03:29:45.080Z,4.71
2023-02-05T03:32:54.896Z,4.65
2023-02-05T03:35:54.015Z,4.58
2023-02-05T03:39:09.981Z,4.47
2023-02-05T03:42:15.408Z,4.52
2023-02-05T03:45:27.275Z,4.58
2023-02-05T03:48:52.487Z,4.58
2023-02-05T03:51:51.449Z,4.55
2023-02-05T03:54:51.530Z,4.58
2023-02-05T03:57:53.769Z,4.60
2023-02-05T04:00:45.386Z,4.59
2023-02-05T04:03:36.043Z,4.57
2023-02-05T04:06:25.536Z,4.58
2023-02-05T04:09:16.156Z,4.57
2023-02-05T04:12:08.172Z,4.54
2023-02-05T04:14:58.908Z,4.54
2023-02-05T04:17:48.158Z,4.43
2023-02-05T04:20:37.708Z,4.41
2023-02-05T04:23:28.876Z,4.34
2023-02-05T04:26:18.334Z,4.35
2023-02-05T04:29:18.742Z,4.34
2023-02-05T04:32:11.085Z,4.32
2023-02-05T04:35:00.411Z,4.13
2023-02-05T04:37:49.788Z,4.31
2023-02-05T04:40:39.967Z,4.27
2023-02-05T04:43:29.301Z,4.18
2023-02-05T04:46:19.868Z,4.26
2023-02-05T04:49:09.036Z,4.20
2023-02-05T04:51:58.248Z,4.17
2023-02-05T04:54:47.814Z,4.17
2023-02-05T04:57:37.501Z,4.21
2023-02-05T05:00:27.311Z,4.19
2023-02-05T05:03:17.911Z,4.17
2023-02-05T05:06:08.793Z,4.14
2023-02-05T05:08:57.975Z,4.14
2023-02-05T05:11:47.175Z,4.11
2023-02-05T05:14:37.658Z,4.08
2023-02-05T05:17:26.893Z,4.04
2023-02-05T05:20:18.004Z,4.01
2023-02-05T05:23:07.189Z,3.97
2023-02-05T05:25:56.508Z,3.90
2023-02-05T05:28:45.732Z,3.85
2023-02-05T05:31:34.965Z,3.85
2023-02-05T05:34:24.266Z,3.89
2023-02-05T05:37:15.793Z,3.91
2023-02-05T05:40:23.046Z,3.88
2023-02-05T05:43:32.868Z,3.88
2023-02-05T05:46:25.335Z,3.83
2023-02-05T05:49:14.559Z,3.80
2023-02-05T05:52:03.797Z,3.77
2023-02-05T05:54:54.438Z,3.81
2023-02-05T05:57:43.672Z,3.80
2023-02-05T06:00:33.094Z,3.65
2023-02-05T06:03:24.102Z,3.70
2023-02-05T06:06:14.704Z,3.73
2023-02-05T06:09:03.975Z,3.67
2023-02-05T06:11:54.574Z,3.69
2023-02-05T06:14:43.830Z,3.62
2023-02-05T06:17:33.094Z,3.66
2023-02-05T06:20:22.558Z,3.62
2023-02-05T06:23:11.998Z,3.64
2023-02-05T06:26:01.373Z,3.54
2023-02-05T06:28:52.111Z,3.58
2023-02-05T06:31:41.479Z,3.58
2023-02-05T06:34:30.864Z,3.56
2023-02-05T06:37:20.114Z,3.53
2023-02-05T06:40:12.070Z,3.57
2023-02-05T06:43:01.366Z,3.53
2023-02-05T06:45:51.929Z,3.53
2023-02-05T06:48:41.166Z,3.47
2023-02-05T06:51:30.377Z,3.48
2023-02-05T06:54:19.644Z,3.48
2023-02-05T06:57:08.994Z,3.49
2023-02-05T06:59:58.397Z,3.47
2023-02-05T07:02:49.127Z,3.45
2023-02-05T07:05:38.389Z,3.40
2023-02-05T07:08:27.802Z,3.43
2023-02-05T07:11:17.399Z,3.38
2023-02-05T07:14:06.700Z,3.41
2023-02-05T07:16:55.991Z,3.44
2023-02-05T07:19:46.513Z,3.42
2023-02-05T07:22:35.705Z,3.38
2023-02-05T07:25:24.869Z,3.40
2023-02-05T07:28:14.177Z,3.35
2023-02-05T07:31:06.357Z,3.26
2023-02-05T07:33:55.809Z,3.28
2023-02-05T07:36:46.652Z,3.30
2023-02-05T07:39:35.804Z,3.25
2023-02-05T07:42:25.115Z,3.22
2023-02-05T07:45:19.966Z,3.16
2023-02-05T07:48:09.259Z,3.16
2023-02-05T07:50:58.692Z,3.18
2023-02-05T07:53:50.501Z,3.17
2023-02-05T07:56:40.058Z,3.18
2023-02-05T07:59:29.817Z,3.04
2023-02-05T08:02:19.130Z,3.14
2023-02-05T08:05:09.258Z,3.17
2023-02-05T08:07:58.448Z,3.19
2023-02-05T08:10:49.031Z,3.21
2023-02-05T08:13:38.456Z,3.21
2023-02-05T08:16:27.738Z,3.17
2023-02-05T08:19:19.168Z,3.18
2023-02-05T08:22:08.367Z,3.13
2023-02-05T08:24:57.547Z,3.17
2023-02-05T08:27:49.306Z,3.15
2023-02-05T08:30:39.530Z,3.12
2023-02-05T08:33:28.787Z,3.17
2023-02-05T08:36:18.063Z,3.10
2023-02-05T08:39:07.263Z,3.19
2023-02-05T08:41:57.159Z,3.26
2023-02-05T08:44:48.453Z,3.25
2023-02-05T08:47:38.156Z,3.33
2023-02-05T08:50:27.792Z,3.31
2023-02-05T08:53:17.177Z,3.43
2023-02-05T08:56:10.607Z,3.47
2023-02-05T08:59:00.186Z,3.52
2023-02-05T09:01:51.127Z,3.54
2023-02-05T09:04:40.772Z,3.63
2023-02-05T09:07:30.045Z,3.69
2023-02-05T09:10:19.787Z,3.69
2023-02-05T09:13:09.044Z,3.78
2023-02-05T09:15:58.385Z,3.87
2023-02-05T09:18:49.008Z,3.94
2023-02-05T09:21:38.291Z,3.93
2023-02-05T09:24:27.529Z,3.92
2023-02-05T09:27:16.962Z,3.99
2023-02-05T09:30:07.092Z,4.03
2023-02-05T09:32:56.480Z,4.10
2023-02-05T09:35:47.234Z,4.10
2023-02-05T09:38:36.906Z,4.13
2023-02-05T09:41:33.499Z,4.12
2023-02-05T09:44:44.723Z,4.19
2023-02-05T09:47:42.259Z,4.28
2023-02-05T09:50:33.636Z,4.39
2023-02-05T09:53:24.875Z,4.43
2023-02-05T09:56:17.403Z,4.53
2023-02-05T09:59:06.958Z,4.60
2023-02-05T10:02:00.505Z,4.69
2023-02-05T10:04:52.163Z,4.76
2023-02-05T10:07:53.633Z,4.81
2023-02-05T10:10:47.418Z,4.91
2023-02-05T10:13:38.333Z,4.95
2023-02-05T10:16:46.392Z,5.06
2023-02-05T10:20:07.261Z,5.20
2023-02-05T10:23:14.852Z,5.34
2023-02-05T10:26:12.584Z,5.31
2023-02-05T10:29:26.865Z,5.28
2023-02-05T10:32:23.992Z,5.31
2023-02-05T10:35:26.502Z,5.38
2023-02-05T10:38:23.117Z,5.42
2023-02-05T10:41:25.703Z,5.51
2023-02-05T10:44:22.270Z,5.55
2023-02-05T10:47:15.882Z,5.58
2023-02-05T10:50:15.320Z,5.72
2023-02-05T10:53:04.575Z,5.88
2023-02-05T10:55:54.175Z,5.98
2023-02-05T10:58:54.270Z,6.00
2023-02-05T11:01:44.956Z,6.16
2023-02-05T11:04:43.069Z,6.21
2023-02-05T11:07:39.976Z,6.29
2023-02-05T11:10:32.579Z,6.39
2023-02-05T11:13:23.530Z,6.44
2023-02-05T11:16:14.163Z,6.55
2023-02-05T11:19:03.443Z,6.58
2023-02-05T11:21:56.071Z,6.61
2023-02-05T11:24:45.429Z,6.81
2023-02-05T11:27:36.357Z,6.99
2023-02-05T11:30:50.474Z,7.26
2023-02-05T11:33:41.592Z,7.67
2023-02-05T11:36:31.672Z,7.99
2023-02-05T11:39:36.103Z,8.40
2023-02-05T11:42:27.285Z,8.83
2023-02-05T11:45:20.762Z,9.12
2023-02-05T11:48:29.713Z,9.33
2023-02-05T11:51:39.995Z,9.87
2023-02-05T11:54:33.458Z,10.49
2023-02-05T11:57:35.526Z,10.95
2023-02-05T12:00:25.935Z,11.48
2023-02-05T12:03:20.264Z,11.87
2023-02-05T12:06:29.011Z,12.01
2023-02-05T12:09:22.269Z,12.42
2023-02-05T12:12:21.615Z,12.77
2023-02-05T12:15:21.016Z,13.41
2023-02-05T12:18:25.110Z,14.05
2023-02-05T12:21:28.466Z,14.26
2023-02-05T12:24:49.205Z,14.78
2023-02-05T12:27:58.571Z,15.12
2023-02-05T12:31:02.851Z,15.51
2023-02-05T12:34:16.263Z,16.22
2023-02-05T12:37:26.605Z,17.03
2023-02-05T12:40:40.192Z,17.26
2023-02-05T12:43:40.990Z,17.33
2023-02-05T12:46:47.864Z,17.28
2023-02-05T12:50:00.683Z,17.40
2023-02-05T12:53:11.325Z,17.26
2023-02-05T12:56:29.987Z,17.09
2023-02-05T12:59:30.240Z,16.75
2023-02-05T13:02:29.466Z,16.59
2023-02-05T13:05:24.067Z,16.01
2023-02-05T13:08:23.320Z,15.42
2023-02-05T13:11:18.408Z,15.31
2023-02-05T13:14:15.716Z,15.24
2023-02-05T13:17:15.284Z,15.18
2023-02-05T13:20:08.730Z,15.28
2023-02-05T13:23:19.065Z,15.27
2023-02-05T13:26:32.009Z,15.27
2023-02-05T13:29:24.790Z,15.16
2023-02-05T13:32:17.576Z,15.16
2023-02-05T13:35:09.559Z,15.07
2023-02-05T13:38:35.748Z,15.23
2023-02-05T13:42:03.513Z,15.52
2023-02-05T13:45:35.708Z,15.83
2023-02-05T13:48:50.840Z,16.21
2023-02-05T13:51:54.429Z,16.30
2023-02-05T13:55:33.254Z,16.47
2023-02-05T13:58:26.503Z,16.62
2023-02-05T14:01:22.306Z,16.77
2023-02-05T14:04:22.177Z,16.85
2023-02-05T14:07:23.568Z,16.77
2023-02-05T14:10:28.091Z,16.93
2023-02-05T14:13:25.840Z,17.10
2023-02-05T14:16:37.748Z,17.14
2023-02-05T14:19:44.065Z,16.95
2023-02-05T14:22:42.331Z,16.57
2023-02-05T14:26:11.874Z,16.62
2023-02-05T14:29:02.669Z,16.77
2023-02-05T14:31:52.084Z,16.98
2023-02-05T14:34:49.315Z,17.01
2023-02-05T14:37:41.110Z,17.08
2023-02-05T14:40:35.832Z,17.16
2023-02-05T14:43:33.324Z,16.95
2023-02-05T14:46:32.263Z,16.48
2023-02-05T14:49:26.767Z,16.12
2023-02-05T14:52:28.894Z,15.64
2023-02-05T14:55:23.532Z,15.20
2023-02-05T14:58:27.126Z,14.86
2023-02-05T15:01:46.402Z,14.42
2023-02-05T15:04:49.491Z,14.19
2023-02-05T15:07:39.303Z,14.06
2023-02-05T15:10:33.368Z,13.86
2023-02-05T15:13:24.947Z,13.71
2023-02-05T15:16:22.509Z,13.66
2023-02-05T15:19:14.831Z,13.53
2023-02-05T15:22:06.824Z,13.53
2023-02-05T15:24:57.727Z,13.62
2023-02-05T15:27:55.487Z,13.87
2023-02-05T15:31:03.741Z,14.25
2023-02-05T15:34:35.980Z,14.70
2023-02-05T15:37:31.060Z,15.02
2023-02-05T15:40:23.532Z,15.18
2023-02-05T15:43:24.985Z,15.67
2023-02-05T15:46:18.402Z,16.30
2023-02-05T15:49:07.869Z,16.84
2023-02-05T15:51:59.145Z,17.21
2023-02-05T15:54:48.591Z,17.39
2023-02-05T15:57:37.871Z,17.40
2023-02-05T16:00:31.324Z,17.11
2023-02-05T16:03:32.579Z,16.73
2023-02-05T16:06:22.948Z,16.42
2023-02-05T16:09:19.294Z,16.28
2023-02-05T16:12:16.052Z,16.01
2023-02-05T16:15:08.640Z,15.71
2023-02-05T16:18:00.660Z,14.89
2023-02-05T16:20:55.149Z,14.03
2023-02-05T16:23:49.211Z,13.36
2023-02-05T16:26:46.015Z,12.70
2023-02-05T16:29:48.118Z,12.30
2023-02-05T16:32:43.397Z,11.88
2023-02-05T16:35:37.107Z,11.67
2023-02-05T16:38:28.300Z,11.43
2023-02-05T16:41:25.566Z,11.23
2023-02-05T16:44:33.684Z,10.98
2023-02-05T16:47:23.320Z,10.79
2023-02-05T16:50:42.651Z,10.56
2023-02-05T16:53:34.197Z,10.56
2023-02-05T16:56:26.572Z,10.56
2023-02-05T16:59:23.182Z,10.56
2023-02-05T17:02:29.578Z,10.56
2023-02-05T17:05:26.949Z,10.56
2023-02-05T17:08:16.163Z,10.56
2023-02-05T17:11:07.793Z,9.73
2023-02-05T17:14:14.453Z,9.61
2023-02-05T17:17:17.398Z,9.53
2023-02-05T17:20:20.614Z,9.43
2023-02-05T17:23:13.074Z,9.33
2023-02-05T17:26:02.329Z,9.20
2023-02-05T17:28:57.727Z,9.07
2023-02-05T17:31:47.029Z,9.01
2023-02-05T17:34:37.683Z,8.89
2023-02-05T17:37:27.145Z,8.78
2023-02-05T17:40:17.130Z,8.66
2023-02-05T17:43:06.442Z,8.63
2023-02-05T17:45:55.710Z,8.58
2023-02-05T17:48:45.098Z,8.51
2023-02-05T17:51:36.279Z,8.51
2023-02-05T17:54:27.128Z,8.27
2023-02-05T17:57:19.534Z,8.27
2023-02-05T18:00:10.318Z,8.21
2023-02-05T18:03:01.185Z,8.12
2023-02-05T18:05:50.561Z,8.10
2023-02-05T18:08:42.252Z,8.03
2023-02-05T18:11:31.737Z,8.01
2023-02-05T18:14:21.871Z,7.92
2023-02-05T18:17:11.184Z,7.91
2023-02-05T18:20:00.556Z,7.97
2023-02-05T18:22:50.570Z,7.96
2023-02-05T18:25:41.651Z,8.00
2023-02-05T18:28:31.027Z,7.96
2023-02-05T18:31:20.543Z,7.97
2023-02-05T18:34:09.813Z,7.90
2023-02-05T18:36:59.386Z,7.85
2023-02-05T18:39:49.531Z,7.80
2023-02-05T18:42:41.305Z,7.69
2023-02-05T18:45:30.480Z,7.68
2023-02-05T18:48:19.675Z,7.63
2023-02-05T18:51:11.633Z,7.54
2023-02-05T18:54:01.014Z,7.54
2023-02-05T18:56:51.800Z,7.52
2023-02-05T18:59:44.598Z,7.45
2023-02-05T19:02:35.241Z,7.47
2023-02-05T19:05:24.582Z,7.45
2023-02-05T19:08:14.232Z,7.27
2023-02-05T19:11:08.615Z,7.21
2023-02-05T19:14:00.149Z,7.17
2023-02-05T19:16:51.913Z,7.15
2023-02-05T19:19:41.272Z,7.06
2023-02-05T19:22:30.465Z,7.05
2023-02-05T19:25:20.048Z,6.95
2023-02-05T19:28:10.005Z,6.95
2023-02-05T19:30:59.458Z,6.96
2023-02-05T19:33:50.402Z,6.87
2023-02-05T19:36:40.181Z,6.83
2023-02-05T19:39:29.466Z,6.86
2023-02-05T19:42:18.906Z,6.82
2023-02-05T19:45:09.541Z,6.77
2023-02-05T19:47:58.971Z,6.66
2023-02-05T19:50:49.594Z,6.68
2023-02-05T19:53:41.786Z,6.62
2023-02-05T19:56:32.466Z,6.54
2023-02-05T19:59:22.071Z,6.49
2023-02-05T20:02:19.258Z,6.38
2023-02-05T20:05:09.018Z,6.42
2023-02-05T20:07:59.856Z,6.39
2023-02-05T20:10:58.881Z,6.37
2023-02-05T20:13:48.250Z,6.28
2023-02-05T20:16:37.557Z,6.30
2023-02-05T20:19:26.883Z,6.24
2023-02-05T20:22:16.146Z,6.22
2023-02-05T20:25:07.487Z,6.20
2023-02-05T20:27:56.896Z,6.15
2023-02-05T20:31:03.938Z,6.17
2023-02-05T20:33:53.232Z,6.10
2023-02-05T20:36:42.482Z,5.71
2023-02-05T20:39:34.828Z,6.03
2023-02-05T20:42:25.684Z,5.98
2023-02-05T20:45:15.069Z,5.86
2023-02-05T20:48:04.618Z,5.91
2023-02-05T20:50:53.973Z,6.03
2023-02-05T20:53:43.835Z,5.94
2023-02-05T20:56:34.095Z,5.85
2023-02-05T20:59:24.882Z,5.87
2023-02-05T21:02:15.738Z,5.79
2023-02-05T21:05:05.022Z,5.79
2023-02-05T21:07:55.272Z,5.72
2023-02-05T21:10:44.457Z,5.63
2023-02-05T21:13:34.571Z,5.68
2023-02-05T21:16:26.945Z,5.57
2023-02-05T21:19:16.201Z,5.61
2023-02-05T21:22:05.433Z,5.53
2023-02-05T21:24:54.720Z,5.54
2023-02-05T21:27:44.085Z,5.52
2023-02-05T21:30:33.488Z,5.52
2023-02-05T21:33:25.701Z,5.50
2023-02-05T21:36:15.167Z,5.48
2023-02-05T21:39:04.842Z,5.49
2023-02-05T21:41:54.769Z,5.45
2023-02-05T21:44:49.281Z,5.44
2023-02-05T21:47:38.681Z,5.41
2023-02-05T21:50:29.424Z,5.41
2023-02-05T21:53:18.777Z,5.26
2023-02-05T21:56:10.731Z,5.31
2023-02-05T21:59:00.223Z,5.25
2023-02-05T22:01:49.429Z,5.31
2023-02-05T22:04:41.809Z,5.32
2023-02-05T22:07:32.730Z,5.31
2023-02-05T22:10:21.932Z,5.33
2023-02-05T22:13:11.131Z,5.25
2023-02-05T22:16:06.385Z,5.16
2023-02-05T22:18:56.802Z,5.20
2023-02-05T22:21:46.058Z,5.23
2023-02-05T22:24:36.822Z,5.22
2023-02-05T22:27:27.209Z,5.22
2023-02-05T22:30:16.465Z,5.20
2023-02-05T22:33:05.768Z,5.17
2023-02-05T22:35:56.728Z,5.15
2023-02-05T22:38:46.137Z,5.12
2023-02-05T22:41:39.611Z,5.09
2023-02-05T22:44:28.806Z,5.13
2023-02-05T22:47:18.294Z,5.15
2023-02-05T22:50:08.821Z,5.02
2023-02-05T22:52:58.113Z,4.98
2023-02-05T22:55:47.358Z,4.99
2023-02-05T22:58:41.244Z,5.02
2023-02-05T23:01:33.996Z,4.92
2023-02-05T23:04:23.217Z,5.00
2023-02-05T23:07:12.518Z,5.00
2023-02-05T23:10:01.688Z,4.90
2023-02-05T23:12:51.097Z,4.95
2023-02-05T23:15:41.733Z,4.91
2023-02-05T23:18:30.920Z,4.91
2023-02-05T23:21:24.269Z,4.85
2023-02-05T23:24:14.329Z,4.87
2023-02-05T23:27:03.551Z,4.86
2023-02-05T23:29:53.052Z,4.74
2023-02-05T23:32:43.707Z,4.79
2023-02-05T23:35:32.996Z,4.76
2023-02-05T23:38:25.137Z,4.73
2023-02-05T23:41:14.667Z,4.68
2023-02-05T23:44:06.663Z,4.60
2023-02-05T23:46:55.902Z,4.52
2023-02-05T23:49:46.604Z,4.56
2023-02-05T23:52:35.782Z,4.48
2023-02-05T23:55:24.988Z,4.47
2023-02-05T23:58:14.286Z,4.50
